sensor_id;sensor_type;location;lat;lon;timestamp;P1;durP1;ratioP1;P2;durP2;ratioP2
71383;SDS011;67558;52.166;5.004;2024-01-15T00:01:06;63.40;;;61.60;;
71383;SDS011;67558;52.166;5.004;2024-01-15T00:03:32;67.40;;;65.32;;
71383;SDS011;67558;52.166;5.004;2024-01-15T00:05:57;67.32;;;65.43;;
71383;SDS011;67558;52.166;5.004;2024-01-15T00:08:22;68.47;;;66.68;;
71383;SDS011;67558;52.166;5.004;2024-01-15T00:10:50;65.90;;;64.00;;
71383;SDS011;67558;52.166;5.004;2024-01-15T00:13:16;66.28;;;64.35;;
71383;SDS011;67558;52.166;5.004;2024-01-15T00:15:41;77.53;;;75.50;;
71383;SDS011;67558;52.166;5.004;2024-01-15T00:18:06;67.00;;;65.18;;
71383;SDS011;67558;52.166;5.004;2024-01-15T00:20:32;73.97;;;71.72;;
71383;SDS011;67558;52.166;5.004;2024-01-15T00:22:57;79.13;;;77.03;;
71383;SDS011;67558;52.166;5.004;2024-01-15T00:25:22;81.55;;;79.40;;
71383;SDS011;67558;52.166;5.004;2024-01-15T00:27:48;65.80;;;64.00;;
71383;SDS011;67558;52.166;5.004;2024-01-15T00:30:14;70.35;;;68.53;;
71383;SDS011;67558;52.166;5.004;2024-01-15T00:32:39;66.47;;;64.68;;
71383;SDS011;67558;52.166;5.004;2024-01-15T00:35:05;65.95;;;64.20;;
71383;SDS011;67558;52.166;5.004;2024-01-15T00:37:30;69.15;;;67.30;;
71383;SDS011;67558;52.166;5.004;2024-01-15T00:39:56;68.95;;;67.13;;
71383;SDS011;67558;52.166;5.004;2024-01-15T00:42:21;81.22;;;78.97;;
71383;SDS011;67558;52.166;5.004;2024-01-15T00:44:47;81.70;;;79.47;;
71383;SDS011;67558;52.166;5.004;2024-01-15T00:47:12;66.82;;;65.00;;
71383;SDS011;67558;52.166;5.004;2024-01-15T00:49:37;64.90;;;63.13;;
71383;SDS011;67558;52.166;5.004;2024-01-15T00:52:03;67.38;;;65.47;;
71383;SDS011;67558;52.166;5.004;2024-01-15T00:54:28;68.90;;;66.88;;
71383;SDS011;67558;52.166;5.004;2024-01-15T00:56:54;75.97;;;73.97;;
71383;SDS011;67558;52.166;5.004;2024-01-15T00:59:20;68.80;;;67.00;;
71383;SDS011;67558;52.166;5.004;2024-01-15T01:01:45;65.28;;;63.38;;
71383;SDS011;67558;52.166;5.004;2024-01-15T01:04:11;66.28;;;64.47;;
71383;SDS011;67558;52.166;5.004;2024-01-15T01:06:37;65.60;;;63.80;;
71383;SDS011;67558;52.166;5.004;2024-01-15T01:09:02;76.70;;;74.35;;
71383;SDS011;67558;52.166;5.004;2024-01-15T01:11:28;81.00;;;78.90;;
71383;SDS011;67558;52.166;5.004;2024-01-15T01:13:53;68.70;;;66.82;;
71383;SDS011;67558;52.166;5.004;2024-01-15T01:16:19;66.88;;;64.95;;
71383;SDS011;67558;52.166;5.004;2024-01-15T01:18:44;67.47;;;65.68;;
71383;SDS011;67558;52.166;5.004;2024-01-15T01:21:09;64.68;;;62.88;;
71383;SDS011;67558;52.166;5.004;2024-01-15T01:23:35;69.22;;;67.35;;
71383;SDS011;67558;52.166;5.004;2024-01-15T01:26:00;67.55;;;65.72;;
71383;SDS011;67558;52.166;5.004;2024-01-15T01:28:25;73.30;;;71.38;;
71383;SDS011;67558;52.166;5.004;2024-01-15T01:30:51;77.10;;;75.10;;
71383;SDS011;67558;52.166;5.004;2024-01-15T01:33:16;74.22;;;72.15;;
71383;SDS011;67558;52.166;5.004;2024-01-15T01:35:41;81.88;;;79.72;;
71383;SDS011;67558;52.166;5.004;2024-01-15T01:38:07;79.22;;;77.07;;
71383;SDS011;67558;52.166;5.004;2024-01-15T01:40:32;72.05;;;70.05;;
71383;SDS011;67558;52.166;5.004;2024-01-15T01:42:57;74.45;;;72.50;;
71383;SDS011;67558;52.166;5.004;2024-01-15T01:45:23;71.85;;;69.85;;
71383;SDS011;67558;52.166;5.004;2024-01-15T01:47:48;88.65;;;86.28;;
71383;SDS011;67558;52.166;5.004;2024-01-15T01:50:14;77.93;;;75.82;;
71383;SDS011;67558;52.166;5.004;2024-01-15T01:52:39;72.13;;;70.13;;
71383;SDS011;67558;52.166;5.004;2024-01-15T01:55:06;77.53;;;75.40;;
71383;SDS011;67558;52.166;5.004;2024-01-15T01:57:34;73.97;;;71.97;;
71383;SDS011;67558;52.166;5.004;2024-01-15T02:00:00;79.03;;;76.80;;
71383;SDS011;67558;52.166;5.004;2024-01-15T02:02:28;75.30;;;73.20;;
71383;SDS011;67558;52.166;5.004;2024-01-15T02:04:54;76.65;;;74.55;;
71383;SDS011;67558;52.166;5.004;2024-01-15T02:07:19;82.93;;;80.82;;
71383;SDS011;67558;52.166;5.004;2024-01-15T02:09:45;71.13;;;69.22;;
71383;SDS011;67558;52.166;5.004;2024-01-15T02:12:11;75.40;;;73.38;;
71383;SDS011;67558;52.166;5.004;2024-01-15T02:14:36;77.40;;;75.38;;
71383;SDS011;67558;52.166;5.004;2024-01-15T02:17:02;81.15;;;78.93;;
71383;SDS011;67558;52.166;5.004;2024-01-15T02:19:28;76.30;;;74.30;;
71383;SDS011;67558;52.166;5.004;2024-01-15T02:21:53;73.28;;;71.38;;
71383;SDS011;67558;52.166;5.004;2024-01-15T02:24:18;96.07;;;93.65;;
71383;SDS011;67558;52.166;5.004;2024-01-15T02:26:44;82.85;;;80.72;;
71383;SDS011;67558;52.166;5.004;2024-01-15T02:29:09;77.43;;;75.53;;
71383;SDS011;67558;52.166;5.004;2024-01-15T02:31:36;83.10;;;81.03;;
71383;SDS011;67558;52.166;5.004;2024-01-15T02:34:01;79.63;;;77.63;;
71383;SDS011;67558;52.166;5.004;2024-01-15T02:36:27;81.85;;;79.63;;
71383;SDS011;67558;52.166;5.004;2024-01-15T02:38:52;84.32;;;82.07;;
71383;SDS011;67558;52.166;5.004;2024-01-15T02:41:17;76.82;;;74.72;;
71383;SDS011;67558;52.166;5.004;2024-01-15T02:43:43;78.22;;;76.10;;
71383;SDS011;67558;52.166;5.004;2024-01-15T02:46:09;74.22;;;72.35;;
71383;SDS011;67558;52.166;5.004;2024-01-15T02:48:34;74.35;;;72.40;;
71383;SDS011;67558;52.166;5.004;2024-01-15T02:51:02;72.90;;;70.95;;
71383;SDS011;67558;52.166;5.004;2024-01-15T02:53:28;81.28;;;79.20;;
71383;SDS011;67558;52.166;5.004;2024-01-15T02:55:53;78.32;;;76.20;;
71383;SDS011;67558;52.166;5.004;2024-01-15T02:58:19;69.88;;;68.00;;
71383;SDS011;67558;52.166;5.004;2024-01-15T03:00:44;76.38;;;74.38;;
71383;SDS011;67558;52.166;5.004;2024-01-15T03:03:11;75.28;;;73.32;;
71383;SDS011;67558;52.166;5.004;2024-01-15T03:05:36;78.90;;;76.85;;
71383;SDS011;67558;52.166;5.004;2024-01-15T03:08:02;86.55;;;84.32;;
71383;SDS011;67558;52.166;5.004;2024-01-15T03:10:27;78.25;;;76.25;;
71383;SDS011;67558;52.166;5.004;2024-01-15T03:12:53;77.60;;;75.60;;
71383;SDS011;67558;52.166;5.004;2024-01-15T03:15:18;79.30;;;77.28;;
71383;SDS011;67558;52.166;5.004;2024-01-15T03:17:43;76.55;;;74.50;;
71383;SDS011;67558;52.166;5.004;2024-01-15T03:20:09;79.63;;;77.53;;
71383;SDS011;67558;52.166;5.004;2024-01-15T03:22:35;77.65;;;75.60;;
71383;SDS011;67558;52.166;5.004;2024-01-15T03:25:01;92.40;;;90.10;;
71383;SDS011;67558;52.166;5.004;2024-01-15T03:27:26;80.60;;;78.60;;
71383;SDS011;67558;52.166;5.004;2024-01-15T03:29:51;80.03;;;77.97;;
71383;SDS011;67558;52.166;5.004;2024-01-15T03:32:17;74.82;;;72.80;;
71383;SDS011;67558;52.166;5.004;2024-01-15T03:34:42;85.35;;;82.97;;
71383;SDS011;67558;52.166;5.004;2024-01-15T03:37:08;79.38;;;77.38;;
71383;SDS011;67558;52.166;5.004;2024-01-15T03:39:33;85.28;;;83.13;;
71383;SDS011;67558;52.166;5.004;2024-01-15T03:41:59;76.60;;;74.60;;
71383;SDS011;67558;52.166;5.004;2024-01-15T03:44:24;78.30;;;76.18;;
71383;SDS011;67558;52.166;5.004;2024-01-15T03:46:50;82.47;;;80.28;;
71383;SDS011;67558;52.166;5.004;2024-01-15T03:49:15;74.80;;;72.88;;
71383;SDS011;67558;52.166;5.004;2024-01-15T03:51:40;78.18;;;76.15;;
71383;SDS011;67558;52.166;5.004;2024-01-15T03:54:06;77.65;;;75.65;;
71383;SDS011;67558;52.166;5.004;2024-01-15T03:56:31;74.40;;;72.50;;
71383;SDS011;67558;52.166;5.004;2024-01-15T03:58:57;73.10;;;71.28;;
71383;SDS011;67558;52.166;5.004;2024-01-15T04:01:22;81.63;;;79.55;;
71383;SDS011;67558;52.166;5.004;2024-01-15T04:03:47;65.18;;;63.47;;
71383;SDS011;67558;52.166;5.004;2024-01-15T04:06:12;79.00;;;76.90;;
71383;SDS011;67558;52.166;5.004;2024-01-15T04:08:38;71.47;;;69.53;;
71383;SDS011;67558;52.166;5.004;2024-01-15T04:11:03;71.53;;;69.63;;
71383;SDS011;67558;52.166;5.004;2024-01-15T04:13:28;72.93;;;70.85;;
71383;SDS011;67558;52.166;5.004;2024-01-15T04:15:57;73.57;;;71.57;;
71383;SDS011;67558;52.166;5.004;2024-01-15T04:18:23;74.65;;;72.75;;
71383;SDS011;67558;52.166;5.004;2024-01-15T04:20:48;70.90;;;69.07;;
71383;SDS011;67558;52.166;5.004;2024-01-15T04:23:13;75.25;;;73.15;;
71383;SDS011;67558;52.166;5.004;2024-01-15T04:25:39;74.72;;;72.78;;
71383;SDS011;67558;52.166;5.004;2024-01-15T04:28:07;69.80;;;67.82;;
71383;SDS011;67558;52.166;5.004;2024-01-15T04:30:33;77.25;;;75.32;;
71383;SDS011;67558;52.166;5.004;2024-01-15T04:32:58;77.55;;;75.60;;
71383;SDS011;67558;52.166;5.004;2024-01-15T04:35:24;73.18;;;71.20;;
71383;SDS011;67558;52.166;5.004;2024-01-15T04:37:49;69.72;;;67.93;;
71383;SDS011;67558;52.166;5.004;2024-01-15T04:40:14;74.30;;;72.38;;
71383;SDS011;67558;52.166;5.004;2024-01-15T04:42:40;76.68;;;74.60;;
71383;SDS011;67558;52.166;5.004;2024-01-15T04:45:05;73.32;;;71.45;;
71383;SDS011;67558;52.166;5.004;2024-01-15T04:47:31;71.95;;;70.05;;
71383;SDS011;67558;52.166;5.004;2024-01-15T04:49:56;75.50;;;73.55;;
71383;SDS011;67558;52.166;5.004;2024-01-15T04:52:21;75.53;;;73.53;;
71383;SDS011;67558;52.166;5.004;2024-01-15T04:54:46;72.63;;;70.70;;
71383;SDS011;67558;52.166;5.004;2024-01-15T04:57:12;77.00;;;74.85;;
71383;SDS011;67558;52.166;5.004;2024-01-15T04:59:37;76.72;;;74.63;;
71383;SDS011;67558;52.166;5.004;2024-01-15T05:02:03;76.45;;;74.38;;
71383;SDS011;67558;52.166;5.004;2024-01-15T05:04:28;75.15;;;73.15;;
71383;SDS011;67558;52.166;5.004;2024-01-15T05:06:53;73.35;;;71.32;;
71383;SDS011;67558;52.166;5.004;2024-01-15T05:09:20;72.70;;;70.82;;
71383;SDS011;67558;52.166;5.004;2024-01-15T05:11:45;78.93;;;76.93;;
71383;SDS011;67558;52.166;5.004;2024-01-15T05:14:10;70.57;;;68.60;;
71383;SDS011;67558;52.166;5.004;2024-01-15T05:16:39;73.35;;;71.43;;
71383;SDS011;67558;52.166;5.004;2024-01-15T05:19:05;70.93;;;69.10;;
71383;SDS011;67558;52.166;5.004;2024-01-15T05:21:32;74.88;;;72.97;;
71383;SDS011;67558;52.166;5.004;2024-01-15T05:23:58;75.03;;;72.97;;
71383;SDS011;67558;52.166;5.004;2024-01-15T05:26:24;78.32;;;76.22;;
71383;SDS011;67558;52.166;5.004;2024-01-15T05:28:50;83.68;;;81.47;;
71383;SDS011;67558;52.166;5.004;2024-01-15T05:31:16;82.50;;;80.40;;
71383;SDS011;67558;52.166;5.004;2024-01-15T05:33:42;70.40;;;68.47;;
71383;SDS011;67558;52.166;5.004;2024-01-15T05:36:08;70.30;;;68.38;;
71383;SDS011;67558;52.166;5.004;2024-01-15T05:38:34;75.25;;;73.35;;
71383;SDS011;67558;52.166;5.004;2024-01-15T05:41:00;74.47;;;72.57;;
71383;SDS011;67558;52.166;5.004;2024-01-15T05:43:26;75.43;;;73.53;;
71383;SDS011;67558;52.166;5.004;2024-01-15T05:45:52;78.97;;;76.97;;
71383;SDS011;67558;52.166;5.004;2024-01-15T05:48:18;78.15;;;76.07;;
71383;SDS011;67558;52.166;5.004;2024-01-15T05:50:44;77.38;;;75.18;;
71383;SDS011;67558;52.166;5.004;2024-01-15T05:53:10;79.93;;;77.93;;
71383;SDS011;67558;52.166;5.004;2024-01-15T05:55:36;75.75;;;73.78;;
71383;SDS011;67558;52.166;5.004;2024-01-15T05:58:03;74.03;;;71.95;;
71383;SDS011;67558;52.166;5.004;2024-01-15T06:00:28;88.90;;;86.55;;
71383;SDS011;67558;52.166;5.004;2024-01-15T06:02:54;90.70;;;88.38;;
71383;SDS011;67558;52.166;5.004;2024-01-15T06:05:19;85.68;;;83.45;;
71383;SDS011;67558;52.166;5.004;2024-01-15T06:07:45;81.05;;;79.00;;
71383;SDS011;67558;52.166;5.004;2024-01-15T06:10:10;78.32;;;76.07;;
71383;SDS011;67558;52.166;5.004;2024-01-15T06:12:36;74.85;;;72.95;;
71383;SDS011;67558;52.166;5.004;2024-01-15T06:15:02;82.85;;;80.78;;
71383;SDS011;67558;52.166;5.004;2024-01-15T06:17:30;73.15;;;71.25;;
71383;SDS011;67558;52.166;5.004;2024-01-15T06:19:57;76.03;;;73.93;;
71383;SDS011;67558;52.166;5.004;2024-01-15T06:22:22;78.45;;;76.50;;
71383;SDS011;67558;52.166;5.004;2024-01-15T06:24:48;91.72;;;89.43;;
71383;SDS011;67558;52.166;5.004;2024-01-15T06:27:14;85.55;;;83.32;;
71383;SDS011;67558;52.166;5.004;2024-01-15T06:29:44;79.22;;;77.20;;
71383;SDS011;67558;52.166;5.004;2024-01-15T06:32:16;77.65;;;75.63;;
71383;SDS011;67558;52.166;5.004;2024-01-15T06:34:41;79.10;;;77.00;;
71383;SDS011;67558;52.166;5.004;2024-01-15T06:37:06;79.07;;;76.97;;
71383;SDS011;67558;52.166;5.004;2024-01-15T06:39:32;85.90;;;83.70;;
71383;SDS011;67558;52.166;5.004;2024-01-15T06:41:57;77.43;;;75.30;;
71383;SDS011;67558;52.166;5.004;2024-01-15T06:44:23;82.90;;;80.82;;
71383;SDS011;67558;52.166;5.004;2024-01-15T06:46:48;78.85;;;76.75;;
71383;SDS011;67558;52.166;5.004;2024-01-15T06:49:13;94.55;;;92.05;;
71383;SDS011;67558;52.166;5.004;2024-01-15T06:51:39;81.28;;;79.20;;
71383;SDS011;67558;52.166;5.004;2024-01-15T06:54:05;85.63;;;83.45;;
71383;SDS011;67558;52.166;5.004;2024-01-15T06:56:35;84.22;;;82.03;;
71383;SDS011;67558;52.166;5.004;2024-01-15T06:59:01;92.03;;;89.43;;
71383;SDS011;67558;52.166;5.004;2024-01-15T07:01:26;82.82;;;80.68;;
71383;SDS011;67558;52.166;5.004;2024-01-15T07:03:51;92.10;;;89.75;;
71383;SDS011;67558;52.166;5.004;2024-01-15T07:06:17;81.72;;;79.55;;
71383;SDS011;67558;52.166;5.004;2024-01-15T07:08:42;93.10;;;90.75;;
71383;SDS011;67558;52.166;5.004;2024-01-15T07:11:08;79.30;;;77.13;;
71383;SDS011;67558;52.166;5.004;2024-01-15T07:13:33;95.70;;;92.88;;
71383;SDS011;67558;52.166;5.004;2024-01-15T07:16:00;83.55;;;81.45;;
71383;SDS011;67558;52.166;5.004;2024-01-15T07:18:26;93.88;;;91.50;;
71383;SDS011;67558;52.166;5.004;2024-01-15T07:20:51;88.72;;;86.53;;
71383;SDS011;67558;52.166;5.004;2024-01-15T07:23:17;84.60;;;82.50;;
71383;SDS011;67558;52.166;5.004;2024-01-15T07:25:42;85.75;;;83.63;;
71383;SDS011;67558;52.166;5.004;2024-01-15T07:28:08;84.45;;;82.25;;
71383;SDS011;67558;52.166;5.004;2024-01-15T07:30:34;88.72;;;86.53;;
71383;SDS011;67558;52.166;5.004;2024-01-15T07:33:00;95.20;;;92.75;;
71383;SDS011;67558;52.166;5.004;2024-01-15T07:35:25;90.95;;;88.72;;
71383;SDS011;67558;52.166;5.004;2024-01-15T07:37:50;91.13;;;88.60;;
71383;SDS011;67558;52.166;5.004;2024-01-15T07:40:16;88.07;;;85.85;;
71383;SDS011;67558;52.166;5.004;2024-01-15T07:42:41;86.22;;;84.00;;
71383;SDS011;67558;52.166;5.004;2024-01-15T07:45:07;95.32;;;92.72;;
71383;SDS011;67558;52.166;5.004;2024-01-15T07:47:33;88.10;;;85.63;;
71383;SDS011;67558;52.166;5.004;2024-01-15T07:49:59;88.25;;;85.72;;
71383;SDS011;67558;52.166;5.004;2024-01-15T07:52:24;93.00;;;90.63;;
71383;SDS011;67558;52.166;5.004;2024-01-15T07:54:49;87.50;;;85.15;;
71383;SDS011;67558;52.166;5.004;2024-01-15T07:57:15;101.45;;;99.00;;
71383;SDS011;67558;52.166;5.004;2024-01-15T07:59:40;93.63;;;91.32;;
71383;SDS011;67558;52.166;5.004;2024-01-15T08:02:06;93.45;;;91.05;;
71383;SDS011;67558;52.166;5.004;2024-01-15T08:04:31;94.55;;;92.07;;
71383;SDS011;67558;52.166;5.004;2024-01-15T08:06:56;96.70;;;94.10;;
71383;SDS011;67558;52.166;5.004;2024-01-15T08:09:22;87.75;;;85.45;;
71383;SDS011;67558;52.166;5.004;2024-01-15T08:11:47;83.22;;;81.05;;
71383;SDS011;67558;52.166;5.004;2024-01-15T08:14:14;91.00;;;88.70;;
71383;SDS011;67558;52.166;5.004;2024-01-15T08:16:39;93.00;;;90.53;;
71383;SDS011;67558;52.166;5.004;2024-01-15T08:19:05;90.13;;;87.82;;
71383;SDS011;67558;52.166;5.004;2024-01-15T08:21:30;84.85;;;82.70;;
71383;SDS011;67558;52.166;5.004;2024-01-15T08:23:57;90.07;;;87.78;;
71383;SDS011;67558;52.166;5.004;2024-01-15T08:26:23;88.75;;;86.43;;
71383;SDS011;67558;52.166;5.004;2024-01-15T08:28:49;93.13;;;90.75;;
71383;SDS011;67558;52.166;5.004;2024-01-15T08:31:14;83.60;;;81.45;;
71383;SDS011;67558;52.166;5.004;2024-01-15T08:33:40;97.60;;;95.18;;
71383;SDS011;67558;52.166;5.004;2024-01-15T08:36:05;101.43;;;98.88;;
71383;SDS011;67558;52.166;5.004;2024-01-15T08:38:31;90.32;;;88.10;;
71383;SDS011;67558;52.166;5.004;2024-01-15T08:40:56;103.43;;;100.75;;
71383;SDS011;67558;52.166;5.004;2024-01-15T08:43:24;118.13;;;115.18;;
71383;SDS011;67558;52.166;5.004;2024-01-15T08:45:49;102.82;;;100.15;;
71383;SDS011;67558;52.166;5.004;2024-01-15T08:48:15;109.57;;;106.88;;
71383;SDS011;67558;52.166;5.004;2024-01-15T08:50:41;101.63;;;99.00;;
71383;SDS011;67558;52.166;5.004;2024-01-15T08:53:06;98.35;;;95.78;;
71383;SDS011;67558;52.166;5.004;2024-01-15T08:55:32;100.43;;;97.88;;
71383;SDS011;67558;52.166;5.004;2024-01-15T08:57:57;116.45;;;113.45;;
71383;SDS011;67558;52.166;5.004;2024-01-15T09:00:23;102.20;;;99.68;;
71383;SDS011;67558;52.166;5.004;2024-01-15T09:02:48;123.43;;;120.47;;
71383;SDS011;67558;52.166;5.004;2024-01-15T09:05:14;100.57;;;98.07;;
71383;SDS011;67558;52.166;5.004;2024-01-15T09:07:39;122.18;;;119.18;;
71383;SDS011;67558;52.166;5.004;2024-01-15T09:10:05;97.95;;;95.30;;
71383;SDS011;67558;52.166;5.004;2024-01-15T09:12:30;105.38;;;102.57;;
71383;SDS011;67558;52.166;5.004;2024-01-15T09:14:56;114.80;;;111.97;;
71383;SDS011;67558;52.166;5.004;2024-01-15T09:17:21;119.20;;;116.30;;
71383;SDS011;67558;52.166;5.004;2024-01-15T09:19:49;124.32;;;121.25;;
71383;SDS011;67558;52.166;5.004;2024-01-15T09:22:16;108.20;;;105.53;;
71383;SDS011;67558;52.166;5.004;2024-01-15T09:24:44;140.07;;;136.73;;
71383;SDS011;67558;52.166;5.004;2024-01-15T09:27:11;111.13;;;108.30;;
71383;SDS011;67558;52.166;5.004;2024-01-15T09:29:36;117.22;;;114.22;;
71383;SDS011;67558;52.166;5.004;2024-01-15T09:32:05;111.63;;;108.78;;
71383;SDS011;67558;52.166;5.004;2024-01-15T09:34:30;106.43;;;103.70;;
71383;SDS011;67558;52.166;5.004;2024-01-15T09:36:56;120.90;;;117.88;;
71383;SDS011;67558;52.166;5.004;2024-01-15T09:39:21;107.18;;;104.53;;
71383;SDS011;67558;52.166;5.004;2024-01-15T09:41:48;122.57;;;119.60;;
71383;SDS011;67558;52.166;5.004;2024-01-15T09:44:14;122.38;;;119.45;;
71383;SDS011;67558;52.166;5.004;2024-01-15T09:46:41;116.70;;;113.70;;
71383;SDS011;67558;52.166;5.004;2024-01-15T09:49:08;119.60;;;116.55;;
71383;SDS011;67558;52.166;5.004;2024-01-15T09:51:34;110.47;;;107.72;;
71383;SDS011;67558;52.166;5.004;2024-01-15T09:54:01;126.05;;;123.00;;
71383;SDS011;67558;52.166;5.004;2024-01-15T09:56:27;122.70;;;119.63;;
71383;SDS011;67558;52.166;5.004;2024-01-15T09:58:52;127.20;;;123.97;;
71383;SDS011;67558;52.166;5.004;2024-01-15T10:01:23;111.00;;;108.07;;
71383;SDS011;67558;52.166;5.004;2024-01-15T10:03:49;122.18;;;119.20;;
71383;SDS011;67558;52.166;5.004;2024-01-15T10:06:15;106.45;;;103.57;;
71383;SDS011;67558;52.166;5.004;2024-01-15T10:08:48;108.78;;;105.93;;
71383;SDS011;67558;52.166;5.004;2024-01-15T10:11:15;113.93;;;111.07;;
71383;SDS011;67558;52.166;5.004;2024-01-15T10:13:43;111.00;;;108.13;;
71383;SDS011;67558;52.166;5.004;2024-01-15T10:16:08;112.45;;;109.55;;
71383;SDS011;67558;52.166;5.004;2024-01-15T10:18:34;109.85;;;107.15;;
71383;SDS011;67558;52.166;5.004;2024-01-15T10:21:00;114.50;;;111.68;;
71383;SDS011;67558;52.166;5.004;2024-01-15T10:23:27;111.65;;;108.88;;
71383;SDS011;67558;52.166;5.004;2024-01-15T10:25:52;129.95;;;126.68;;
71383;SDS011;67558;52.166;5.004;2024-01-15T10:28:18;115.10;;;112.15;;
71383;SDS011;67558;52.166;5.004;2024-01-15T10:30:44;127.88;;;124.63;;
71383;SDS011;67558;52.166;5.004;2024-01-15T10:33:10;114.97;;;112.05;;
71383;SDS011;67558;52.166;5.004;2024-01-15T10:35:37;110.88;;;108.07;;
71383;SDS011;67558;52.166;5.004;2024-01-15T10:38:05;108.35;;;105.70;;
71383;SDS011;67558;52.166;5.004;2024-01-15T10:40:31;122.93;;;119.82;;
71383;SDS011;67558;52.166;5.004;2024-01-15T10:42:57;119.38;;;116.35;;
71383;SDS011;67558;52.166;5.004;2024-01-15T10:45:22;123.43;;;120.30;;
71383;SDS011;67558;52.166;5.004;2024-01-15T10:47:48;127.53;;;124.20;;
71383;SDS011;67558;52.166;5.004;2024-01-15T10:50:13;108.00;;;105.28;;
71383;SDS011;67558;52.166;5.004;2024-01-15T10:52:39;124.30;;;121.30;;
71383;SDS011;67558;52.166;5.004;2024-01-15T10:55:09;127.85;;;124.68;;
71383;SDS011;67558;52.166;5.004;2024-01-15T10:57:38;133.45;;;130.23;;
71383;SDS011;67558;52.166;5.004;2024-01-15T11:00:05;125.55;;;122.32;;
71383;SDS011;67558;52.166;5.004;2024-01-15T11:02:32;126.03;;;122.80;;
71383;SDS011;67558;52.166;5.004;2024-01-15T11:05:00;124.78;;;121.57;;
71383;SDS011;67558;52.166;5.004;2024-01-15T11:07:26;141.32;;;137.25;;
71383;SDS011;67558;52.166;5.004;2024-01-15T11:09:52;150.35;;;144.00;;
71383;SDS011;67558;52.166;5.004;2024-01-15T11:12:17;126.97;;;117.95;;
71383;SDS011;67558;52.166;5.004;2024-01-15T11:14:48;128.15;;;118.38;;
71383;SDS011;67558;52.166;5.004;2024-01-15T11:17:15;116.72;;;107.20;;
71383;SDS011;67558;52.166;5.004;2024-01-15T11:22:49;113.23;;;104.13;;
71383;SDS011;67558;52.166;5.004;2024-01-15T11:25:17;108.78;;;100.60;;
71383;SDS011;67558;52.166;5.004;2024-01-15T11:27:46;106.00;;;98.00;;
71383;SDS011;67558;52.166;5.004;2024-01-15T11:30:16;97.47;;;91.07;;
71383;SDS011;67558;52.166;5.004;2024-01-15T11:32:41;109.55;;;103.20;;
71383;SDS011;67558;52.166;5.004;2024-01-15T11:35:07;120.53;;;114.13;;
71383;SDS011;67558;52.166;5.004;2024-01-15T11:40:20;95.43;;;89.63;;
71383;SDS011;67558;52.166;5.004;2024-01-15T11:42:46;106.82;;;101.82;;
71383;SDS011;67558;52.166;5.004;2024-01-15T11:45:13;96.38;;;91.07;;
71383;SDS011;67558;52.166;5.004;2024-01-15T11:50:32;95.63;;;91.05;;
71383;SDS011;67558;52.166;5.004;2024-01-15T11:53:02;92.68;;;88.25;;
71383;SDS011;67558;52.166;5.004;2024-01-15T11:55:35;96.43;;;92.13;;
71383;SDS011;67558;52.166;5.004;2024-01-15T11:58:07;99.72;;;95.70;;
71383;SDS011;67558;52.166;5.004;2024-01-15T12:00:34;103.78;;;99.18;;
71383;SDS011;67558;52.166;5.004;2024-01-15T12:03:04;95.38;;;91.43;;
71383;SDS011;67558;52.166;5.004;2024-01-15T12:05:30;85.57;;;82.00;;
71383;SDS011;67558;52.166;5.004;2024-01-15T12:07:55;90.50;;;86.38;;
71383;SDS011;67558;52.166;5.004;2024-01-15T12:10:21;106.50;;;102.50;;
71383;SDS011;67558;52.166;5.004;2024-01-15T12:12:57;112.60;;;108.65;;
71383;SDS011;67558;52.166;5.004;2024-01-15T12:15:30;90.05;;;86.53;;
71383;SDS011;67558;52.166;5.004;2024-01-15T12:17:57;82.43;;;79.38;;
71383;SDS011;67558;52.166;5.004;2024-01-15T12:20:26;86.53;;;83.32;;
71383;SDS011;67558;52.166;5.004;2024-01-15T12:22:52;93.00;;;89.38;;
71383;SDS011;67558;52.166;5.004;2024-01-15T12:25:19;101.40;;;97.70;;
71383;SDS011;67558;52.166;5.004;2024-01-15T12:27:44;87.90;;;84.55;;
71383;SDS011;67558;52.166;5.004;2024-01-15T12:30:11;90.18;;;87.20;;
71383;SDS011;67558;52.166;5.004;2024-01-15T12:32:38;88.70;;;85.55;;
71383;SDS011;67558;52.166;5.004;2024-01-15T12:35:03;96.32;;;93.05;;
71383;SDS011;67558;52.166;5.004;2024-01-15T12:37:29;96.85;;;93.75;;
71383;SDS011;67558;52.166;5.004;2024-01-15T12:39:55;89.38;;;86.35;;
71383;SDS011;67558;52.166;5.004;2024-01-15T12:42:21;88.93;;;85.97;;
71383;SDS011;67558;52.166;5.004;2024-01-15T12:44:46;96.10;;;93.05;;
71383;SDS011;67558;52.166;5.004;2024-01-15T12:47:12;97.75;;;94.70;;
71383;SDS011;67558;52.166;5.004;2024-01-15T12:49:38;93.63;;;90.90;;
71383;SDS011;67558;52.166;5.004;2024-01-15T12:52:07;90.50;;;87.53;;
71383;SDS011;67558;52.166;5.004;2024-01-15T12:54:33;100.05;;;97.07;;
71383;SDS011;67558;52.166;5.004;2024-01-15T12:56:59;98.20;;;95.05;;
71383;SDS011;67558;52.166;5.004;2024-01-15T12:59:24;96.53;;;93.63;;
71383;SDS011;67558;52.166;5.004;2024-01-15T13:01:49;96.85;;;94.05;;
71383;SDS011;67558;52.166;5.004;2024-01-15T13:04:24;93.85;;;91.20;;
71383;SDS011;67558;52.166;5.004;2024-01-15T13:06:50;103.38;;;100.22;;
71383;SDS011;67558;52.166;5.004;2024-01-15T13:09:16;96.53;;;93.78;;
71383;SDS011;67558;52.166;5.004;2024-01-15T13:11:43;85.95;;;83.18;;
71383;SDS011;67558;52.166;5.004;2024-01-15T13:14:12;100.18;;;97.45;;
71383;SDS011;67558;52.166;5.004;2024-01-15T13:16:41;88.13;;;85.72;;
71383;SDS011;67558;52.166;5.004;2024-01-15T13:19:07;90.20;;;87.65;;
71383;SDS011;67558;52.166;5.004;2024-01-15T13:21:33;91.68;;;88.97;;
71383;SDS011;67558;52.166;5.004;2024-01-15T13:23:59;104.07;;;101.32;;
71383;SDS011;67558;52.166;5.004;2024-01-15T13:26:25;95.75;;;93.05;;
71383;SDS011;67558;52.166;5.004;2024-01-15T13:28:50;99.75;;;96.95;;
71383;SDS011;67558;52.166;5.004;2024-01-15T13:31:16;99.07;;;96.40;;
71383;SDS011;67558;52.166;5.004;2024-01-15T13:33:42;97.82;;;95.00;;
71383;SDS011;67558;52.166;5.004;2024-01-15T13:36:08;106.03;;;103.18;;
71383;SDS011;67558;52.166;5.004;2024-01-15T13:38:38;92.43;;;89.70;;
71383;SDS011;67558;52.166;5.004;2024-01-15T13:41:04;110.97;;;108.03;;
71383;SDS011;67558;52.166;5.004;2024-01-15T13:43:31;99.20;;;96.38;;
71383;SDS011;67558;52.166;5.004;2024-01-15T13:45:57;92.90;;;90.30;;
71383;SDS011;67558;52.166;5.004;2024-01-15T13:48:23;89.68;;;87.20;;
71383;SDS011;67558;52.166;5.004;2024-01-15T13:50:48;83.93;;;81.60;;
71383;SDS011;67558;52.166;5.004;2024-01-15T13:53:15;85.25;;;82.93;;
71383;SDS011;67558;52.166;5.004;2024-01-15T13:55:41;80.05;;;77.80;;
71383;SDS011;67558;52.166;5.004;2024-01-15T13:58:06;93.50;;;90.97;;
71383;SDS011;67558;52.166;5.004;2024-01-15T14:00:32;86.38;;;84.00;;
71383;SDS011;67558;52.166;5.004;2024-01-15T14:02:58;80.15;;;77.88;;
71383;SDS011;67558;52.166;5.004;2024-01-15T14:05:24;81.25;;;78.93;;
71383;SDS011;67558;52.166;5.004;2024-01-15T14:07:50;84.30;;;82.05;;
71383;SDS011;67558;52.166;5.004;2024-01-15T14:10:15;83.55;;;81.10;;
71383;SDS011;67558;52.166;5.004;2024-01-15T14:12:41;79.75;;;77.60;;
71383;SDS011;67558;52.166;5.004;2024-01-15T14:15:06;86.38;;;84.07;;
71383;SDS011;67558;52.166;5.004;2024-01-15T14:17:32;80.82;;;78.55;;